31°C Temp
19°C Dewpoint
49% Humidity
Temperature
5 KM/H
3 MPH
3 KTS
350°
Due North

Wind Speed
Clear
Conditions
Pressure 1010.92 (hPa) - 29.85 (in)
Visibility 6.2 (mi) - 10.0 (km)

Current Conditions
LIRQ
Location 70(km)
Metar :LIRQ 201350Z 35003KT 260V060 CAVOK 31/19 Q1011
Sun 20th June 15:50 pm

Airport
  Metar Aviation API Data Provided by https://www.checkwx.com/ PHP scripts by weather34.com ©2021